Strona główna
METAR-TAF:

METAR-TAF

Lotnisko :

Grand Forks, Dakota Północna, Stany Zjednoczone

Szerokość geograficzna: 47-56-53N, Długość geograficzna: 097-10-57W, wysokość: 257 m

Aktualna obserwacja pogody

Raport powstał 34 minut temu, godzina 12:53 UTC
Cisza
Temperatura 16°C
Wilgotność 63%
Ciśnienie 1013 hPa
Widzialność: 16.1 km
bezchmurnie

METAR: KGFK 031253Z 00000KT 10SM CLR 16/09 A2992 RMK AO2 SLP131 T01610094

czas: 08:27 (13:27 UTC)

Prognoza

Raport powstał 2 godziny i 7 minut temu, godzina 11:20 UTC
Prognoza ważna od 03 godzina 12 UTC do 04 godzina 12 UTC
Wiatr kt od północ
Widzialność: 10 km
bezchmurnie
Od 03 godzina 2200 UTC
Wiatr 10 kt od południowo-południowy zachód
Widzialność: 10 km
Rozproszone chmury na wysokości 5000 ft
Przerywane chmury na wysokości 25000 ft
Od 04 godzina 0600 UTC
Wiatr 8 kt od zachód
Widzialność: 10 km
Mało chmury na wysokości 6000 ft
Mało chmury na wysokości 25000 ft

TAF: KGFK 031120Z 0312/0412 00000KT P6SM SKC FM032200 21010KT P6SM SCT050 BKN250 FM040600 26008KT P6SM FEW060 FEW250

Obserwacja i prognoza pogody dla ponad 4000 lotnisk (raport METAR i TAF).

Dostępne stacje oznaczono żółtymi i czerwonymi punktami na mapie.

Najedź kursorem aby zobaczyć nazwę stacji.

Kliknij aby zobaczyć obserwacje i prognozy pogody.

Aby zmienić mapę: kliknij na zielony przycisk z czarnym krzyżykiem, aby powiększyć; na zielony przycisk z myślnikiem, aby pomniejszyć; na zielone strzałki, aby przejść do map sąsiednich.


METAR-TAF: